Time;durP1;ratioP1;P1;durP2;ratioP2;P2;SDS_P1;SDS_P2;PMS_P1;PMS_P2;Temp;Humidity;BMP_temperature;BMP_pressure;BME280_temperature;BME280_humidity;BME280_pressure;Samples;Min_cycle;Max_cycle;Signal;HPM_P1;HPM_P2
2021/01/02 14:26:26;;;;;;;42.92;23.00;;;;;;;;;;5156194;27;20787;-86
2021/01/02 14:28:52;;;;;;;35.50;21.40;;;;;;;;;;5114870;28;20131;-86
2021/01/02 14:31:19;;;;;;;38.05;21.63;;;;;;;;;;5098768;28;20071;-86
2021/01/02 14:33:45;;;;;;;36.05;22.33;;;;;;;;;;5115717;28;20022;-86
2021/01/02 14:36:14;;;;;;;31.60;20.40;;;;;;;;;;5117445;28;20027;-86
2021/01/02 14:38:41;;;;;;;38.00;22.67;;;;;;;;;;5136508;28;20024;-88
2021/01/02 14:41:07;;;;;;;34.00;22.08;;;;;;;;;;5109443;28;20036;-86
2021/01/02 14:43:34;;;;;;;39.22;21.52;;;;;;;;;;5127248;28;20446;-86
2021/01/02 14:46:15;;;;;;;34.55;20.42;;;;;;;;;;5125798;28;20029;-87
2021/01/02 14:48:47;;;;;;;34.40;19.70;;;;;;;;;;5100981;28;20105;-88
2021/01/02 14:51:13;;;;;;;32.58;19.75;;;;;;;;;;5135651;28;20103;-87
2021/01/02 14:53:40;;;;;;;31.98;19.77;;;;;;;;;;5117367;28;20037;-88
2021/01/02 14:56:07;;;;;;;34.20;20.48;;;;;;;;;;5117214;28;20046;-88
2021/01/02 14:58:33;;;;;;;35.63;20.92;;;;;;;;;;5135412;28;20023;-88
2021/01/02 15:00:59;;;;;;;35.70;20.05;;;;;;;;;;5117221;28;20365;-88
2021/01/02 15:03:25;;;;;;;33.58;20.70;;;;;;;;;;5132616;28;20023;-86
2021/01/02 15:05:52;;;;;;;36.33;22.17;;;;;;;;;;5116220;28;20031;-86
2021/01/02 15:08:18;;;;;;;34.60;19.95;;;;;;;;;;5117529;28;20134;-86
2021/01/02 15:10:44;;;;;;;32.85;20.83;;;;;;;;;;5110339;28;20027;-87
2021/01/02 15:13:11;;;;;;;31.42;19.92;;;;;;;;;;5109650;28;20036;-87
2021/01/02 15:15:37;;;;;;;31.23;19.50;;;;;;;;;;5131649;28;20216;-87
2021/01/02 15:18:03;;;;;;;35.25;20.25;;;;;;;;;;5112095;28;20019;-87
2021/01/02 15:20:29;;;;;;;33.28;21.00;;;;;;;;;;5117852;28;20023;-86
2021/01/02 15:22:55;;;;;;;28.80;18.80;;;;;;;;;;5117583;27;20023;-85
2021/01/02 15:25:21;;;;;;;31.00;19.58;;;;;;;;;;5117544;28;20023;-87
2021/01/02 15:27:47;;;;;;;31.58;18.30;;;;;;;;;;5117117;28;20039;-86
2021/01/02 15:30:14;;;;;;;30.20;19.50;;;;;;;;;;5133669;27;20031;-87
2021/01/02 15:32:40;;;;;;;28.67;19.27;;;;;;;;;;5117609;28;20038;-86
2021/01/02 15:35:07;;;;;;;33.60;19.23;;;;;;;;;;5113656;28;20036;-87
2021/01/02 15:37:33;;;;;;;27.38;17.83;;;;;;;;;;5104908;28;20028;-87
2021/01/02 15:39:59;;;;;;;34.28;20.73;;;;;;;;;;5121760;28;20076;-86
2021/01/02 15:42:26;;;;;;;28.33;18.40;;;;;;;;;;5104225;28;20028;-87
2021/01/02 15:44:52;;;;;;;29.35;17.67;;;;;;;;;;5103168;28;20099;-86
2021/01/02 15:47:19;;;;;;;35.83;19.33;;;;;;;;;;5102685;28;20047;-86
2021/01/02 15:49:46;;;;;;;28.23;18.73;;;;;;;;;;5102424;28;20027;-86
2021/01/02 15:52:14;;;;;;;32.33;18.63;;;;;;;;;;5102560;28;20019;-87
2021/01/02 15:54:40;;;;;;;32.58;19.13;;;;;;;;;;5086860;28;20036;-86
2021/01/02 15:57:07;;;;;;;31.88;18.95;;;;;;;;;;5083563;28;20032;-85
2021/01/02 15:59:33;;;;;;;27.58;18.02;;;;;;;;;;5120617;28;20346;-84
2021/01/02 16:02:00;;;;;;;34.90;19.98;;;;;;;;;;5101851;28;20081;-85
2021/01/02 16:04:26;;;;;;;31.83;20.02;;;;;;;;;;5102292;28;20031;-85
2021/01/02 16:06:57;;;;;;;34.55;22.10;;;;;;;;;;5120462;28;20110;-85
2021/01/02 16:09:23;;;;;;;40.65;20.85;;;;;;;;;;5101611;28;20441;-85
2021/01/02 16:11:49;;;;;;;34.38;20.15;;;;;;;;;;5101886;28;20031;-86
2021/01/02 16:14:16;;;;;;;33.67;20.40;;;;;;;;;;5101739;28;20071;-85
2021/01/02 16:16:43;;;;;;;29.45;19.48;;;;;;;;;;5083363;28;20128;-85
2021/01/02 16:19:10;;;;;;;32.88;19.25;;;;;;;;;;5084246;28;20032;-85
2021/01/02 16:21:37;;;;;;;31.33;18.98;;;;;;;;;;5102861;28;20093;-85
2021/01/02 16:24:03;;;;;;;31.42;18.95;;;;;;;;;;5120056;28;20024;-85
2021/01/02 16:26:30;;;;;;;31.15;20.02;;;;;;;;;;5103887;28;20147;-85
2021/01/02 16:28:56;;;;;;;32.72;19.33;;;;;;;;;;5102971;28;20080;-85
2021/01/02 16:31:22;;;;;;;28.42;17.50;;;;;;;;;;5086295;28;20024;-86
2021/01/02 16:33:49;;;;;;;31.23;18.23;;;;;;;;;;5105669;28;20027;-86
2021/01/02 16:36:26;;;;;;;31.27;18.35;;;;;;;;;;5121412;28;20035;-86
2021/01/02 16:38:52;;;;;;;33.05;17.60;;;;;;;;;;5103023;28;20038;-85
2021/01/02 16:41:23;;;;;;;31.55;17.88;;;;;;;;;;5103583;28;20127;-86
2021/01/02 16:43:49;;;;;;;30.13;18.00;;;;;;;;;;5120621;28;20051;-86
2021/01/02 16:46:19;;;;;;;27.52;16.63;;;;;;;;;;5121118;28;20046;-86
2021/01/02 16:48:47;;;;;;;29.45;18.73;;;;;;;;;;5100557;28;20027;-85
2021/01/02 16:51:18;;;;;;;31.80;18.90;;;;;;;;;;5113176;28;20042;-86
2021/01/02 16:53:44;;;;;;;33.35;18.77;;;;;;;;;;5120304;28;20287;-86
2021/01/02 16:56:13;;;;;;;35.40;20.77;;;;;;;;;;5130922;28;20039;-85
2021/01/02 16:58:39;;;;;;;31.27;19.20;;;;;;;;;;5122991;28;20075;-85
2021/01/02 17:01:05;;;;;;;33.05;19.17;;;;;;;;;;5123043;28;20027;-86
2021/01/02 17:03:31;;;;;;;28.80;18.92;;;;;;;;;;5121568;28;20035;-86
2021/01/02 17:05:58;;;;;;;31.15;19.88;;;;;;;;;;5095197;28;20065;-85
2021/01/02 17:08:25;;;;;;;31.98;19.27;;;;;;;;;;5082948;28;20435;-87
2021/01/02 17:10:52;;;;;;;29.33;17.60;;;;;;;;;;5091134;28;20035;-85
2021/01/02 17:13:18;;;;;;;30.63;19.13;;;;;;;;;;5111948;28;20031;-85
2021/01/02 17:15:44;;;;;;;34.97;20.73;;;;;;;;;;5091150;28;20028;-85
2021/01/02 17:18:10;;;;;;;29.30;18.75;;;;;;;;;;5089138;28;20020;-86
2021/01/02 17:20:37;;;;;;;32.03;19.48;;;;;;;;;;5094438;28;20019;-85
2021/01/02 17:23:03;;;;;;;32.00;19.17;;;;;;;;;;5092160;28;20304;-85
2021/01/02 17:25:29;;;;;;;27.75;18.80;;;;;;;;;;5087685;28;20058;-85
2021/01/02 17:27:55;;;;;;;30.25;18.42;;;;;;;;;;5112642;28;20088;-86
2021/01/02 17:30:22;;;;;;;28.70;17.83;;;;;;;;;;5095793;28;20027;-86
2021/01/02 17:32:48;;;;;;;32.22;17.70;;;;;;;;;;5091608;28;20031;-85
2021/01/02 17:35:14;;;;;;;30.42;18.58;;;;;;;;;;5107833;28;20055;-86
2021/01/02 17:37:41;;;;;;;29.08;18.63;;;;;;;;;;5095606;28;20067;-87
2021/01/02 17:40:07;;;;;;;28.23;18.45;;;;;;;;;;5111115;28;20057;-85
2021/01/02 17:42:33;;;;;;;34.97;17.98;;;;;;;;;;5095397;28;20355;-85
2021/01/02 17:45:12;;;;;;;26.67;16.05;;;;;;;;;;5099667;28;20127;-86
2021/01/02 17:47:39;;;;;;;28.58;17.40;;;;;;;;;;5089483;28;20465;-86
2021/01/02 17:50:06;;;;;;;31.02;18.50;;;;;;;;;;5120019;28;20028;-86
2021/01/02 17:52:32;;;;;;;29.45;17.73;;;;;;;;;;5119790;28;20046;-85
2021/01/02 17:54:58;;;;;;;28.20;17.40;;;;;;;;;;5118522;28;20039;-85
2021/01/02 17:57:24;;;;;;;28.00;17.55;;;;;;;;;;5100580;28;20020;-86
2021/01/02 17:59:51;;;;;;;28.70;16.92;;;;;;;;;;5100248;28;20034;-87
2021/01/02 18:02:17;;;;;;;28.60;17.05;;;;;;;;;;5117643;28;20038;-84
2021/01/02 18:04:44;;;;;;;31.92;17.92;;;;;;;;;;5117362;28;20360;-86
2021/01/02 18:07:10;;;;;;;30.52;17.48;;;;;;;;;;5118848;28;20328;-86
2021/01/02 18:09:36;;;;;;;28.45;16.83;;;;;;;;;;5140912;28;20099;-86
2021/01/02 18:12:03;;;;;;;27.50;16.48;;;;;;;;;;5122002;28;20125;-86
2021/01/02 18:14:30;;;;;;;25.45;16.60;;;;;;;;;;5122863;28;20039;-86
2021/01/02 18:16:57;;;;;;;28.50;16.60;;;;;;;;;;5140116;28;20027;-86
2021/01/02 18:19:26;;;;;;;26.67;16.48;;;;;;;;;;5140145;28;20023;-87
2021/01/02 18:21:53;;;;;;;26.30;17.35;;;;;;;;;;5122215;28;20134;-87
2021/01/02 18:24:21;;;;;;;32.13;17.75;;;;;;;;;;5121812;28;20031;-87
2021/01/02 18:26:48;;;;;;;28.52;17.08;;;;;;;;;;5140152;28;20031;-87
2021/01/02 18:29:16;;;;;;;30.63;17.67;;;;;;;;;;5121652;28;20035;-87
2021/01/02 18:31:42;;;;;;;27.98;17.17;;;;;;;;;;5120681;28;20024;-86
2021/01/02 18:34:08;;;;;;;29.73;17.38;;;;;;;;;;5120691;28;20504;-87
2021/01/02 18:36:37;;;;;;;27.27;17.23;;;;;;;;;;5120136;28;20025;-85
2021/01/02 18:39:04;;;;;;;30.33;17.63;;;;;;;;;;5138825;28;20016;-86
2021/01/02 18:41:33;;;;;;;28.75;17.73;;;;;;;;;;5120592;28;20039;-86
2021/01/02 18:44:00;;;;;;;25.88;16.25;;;;;;;;;;5139033;28;20033;-86
2021/01/02 18:46:27;;;;;;;26.13;16.35;;;;;;;;;;5121190;28;20080;-86
2021/01/02 18:48:55;;;;;;;29.05;17.13;;;;;;;;;;5101646;28;20042;-86
2021/01/02 18:51:24;;;;;;;26.73;16.23;;;;;;;;;;5117570;28;20034;-86
2021/01/02 18:53:50;;;;;;;28.55;17.27;;;;;;;;;;5101402;28;20034;-86
2021/01/02 18:56:18;;;;;;;25.70;16.25;;;;;;;;;;5119433;28;20039;-86
2021/01/02 18:58:44;;;;;;;26.63;16.90;;;;;;;;;;5101077;28;20031;-85
2021/01/02 19:01:10;;;;;;;28.33;17.40;;;;;;;;;;5117955;28;20054;-85
2021/01/02 19:03:36;;;;;;;25.58;15.90;;;;;;;;;;5117838;28;20069;-84
2021/01/02 19:06:03;;;;;;;26.35;16.95;;;;;;;;;;5099927;28;20126;-85
2021/01/02 19:08:29;;;;;;;32.20;15.98;;;;;;;;;;5099328;28;20027;-85
2021/01/02 19:10:58;;;;;;;26.33;16.13;;;;;;;;;;5089100;28;20027;-85
2021/01/02 19:13:26;;;;;;;31.45;18.40;;;;;;;;;;5096164;28;20050;-84
2021/01/02 19:15:55;;;;;;;27.17;17.35;;;;;;;;;;5104203;28;20059;-86
2021/01/02 19:18:21;;;;;;;26.67;17.52;;;;;;;;;;5098017;28;20031;-85
2021/01/02 19:20:48;;;;;;;30.98;16.58;;;;;;;;;;5094722;28;20039;-86
2021/01/02 19:23:14;;;;;;;27.25;16.35;;;;;;;;;;5088365;28;20071;-87
2021/01/02 19:25:44;;;;;;;27.38;16.67;;;;;;;;;;5120454;28;20028;-86
2021/01/02 19:28:10;;;;;;;29.38;18.17;;;;;;;;;;5094276;28;20442;-87
2021/01/02 19:30:39;;;;;;;28.20;16.38;;;;;;;;;;5092348;28;20028;-87
2021/01/02 19:33:05;;;;;;;28.88;17.48;;;;;;;;;;5098583;28;20430;-86
2021/01/02 19:35:31;;;;;;;27.90;18.17;;;;;;;;;;5121275;28;20023;-86
2021/01/02 19:37:57;;;;;;;22.98;14.63;;;;;;;;;;5097227;28;20027;-86
2021/01/02 19:40:24;;;;;;;26.27;16.40;;;;;;;;;;5120139;28;20102;-85
2021/01/02 19:42:50;;;;;;;28.42;15.88;;;;;;;;;;5101881;28;20030;-84
2021/01/02 19:45:17;;;;;;;29.67;17.05;;;;;;;;;;5120195;28;20088;-84
2021/01/02 19:47:43;;;;;;;24.77;16.30;;;;;;;;;;5100858;28;20048;-86
2021/01/02 19:50:10;;;;;;;30.42;17.83;;;;;;;;;;5119078;28;20038;-84
2021/01/02 19:52:42;;;;;;;29.52;18.17;;;;;;;;;;5110541;28;20024;-85
2021/01/02 19:55:08;;;;;;;29.08;17.92;;;;;;;;;;5095136;28;20130;-86
2021/01/02 19:57:34;;;;;;;29.17;17.00;;;;;;;;;;5093194;28;20028;-86
2021/01/02 20:00:01;;;;;;;29.77;17.10;;;;;;;;;;5112184;28;20031;-86
2021/01/02 20:02:27;;;;;;;27.88;17.52;;;;;;;;;;5096826;28;20027;-86
2021/01/02 20:05:02;;;;;;;28.55;16.85;;;;;;;;;;5099123;28;20119;-84
2021/01/02 20:07:31;;;;;;;30.25;17.63;;;;;;;;;;5095772;28;20118;-86
2021/01/02 20:09:57;;;;;;;27.85;17.23;;;;;;;;;;5092109;28;20101;-83
2021/01/02 20:12:24;;;;;;;30.25;17.50;;;;;;;;;;5090290;28;20024;-85
2021/01/02 20:14:51;;;;;;;27.13;15.77;;;;;;;;;;5093939;28;20119;-85
2021/01/02 20:17:17;;;;;;;30.98;19.75;;;;;;;;;;5088117;28;20035;-85
2021/01/02 20:19:47;;;;;;;29.00;16.60;;;;;;;;;;5109587;28;20111;-86
2021/01/02 20:22:14;;;;;;;32.88;18.35;;;;;;;;;;5095208;28;20078;-86
2021/01/02 20:24:41;;;;;;;31.85;18.80;;;;;;;;;;5108510;28;20047;-86
2021/01/02 20:27:09;;;;;;;33.13;18.80;;;;;;;;;;5094108;28;20020;-86
2021/01/02 20:29:40;;;;;;;29.00;18.37;;;;;;;;;;5097598;28;20039;-87
2021/01/02 20:32:17;;;;;;;31.80;19.20;;;;;;;;;;5094744;28;20023;-88
2021/01/02 20:34:45;;;;;;;29.45;18.55;;;;;;;;;;5093735;28;20036;-86
2021/01/02 20:37:12;;;;;;;;;;;;;;;;;;5095700;28;20096;-86
2021/01/02 20:39:39;;;;;;;30.92;18.90;;;;;;;;;;5116691;28;20383;-86
2021/01/02 20:42:11;;;;;;;32.63;19.52;;;;;;;;;;5098182;28;20331;-87
2021/01/02 20:44:38;;;;;;;30.52;18.98;;;;;;;;;;5100514;28;20027;-86
2021/01/02 20:47:08;;;;;;;34.90;21.40;;;;;;;;;;5096897;28;20462;-86
2021/01/02 20:49:36;;;;;;;30.70;19.25;;;;;;;;;;5096096;28;20028;-88
2021/01/02 20:52:03;;;;;;;33.47;19.80;;;;;;;;;;5096483;28;20030;-87
2021/01/02 20:54:29;;;;;;;34.50;21.38;;;;;;;;;;5100602;28;20065;-87
2021/01/02 20:56:56;;;;;;;33.60;20.83;;;;;;;;;;5111528;27;20039;-87
2021/01/02 20:59:23;;;;;;;30.33;19.02;;;;;;;;;;5120631;28;20035;-85
2021/01/02 21:01:50;;;;;;;36.13;20.33;;;;;;;;;;5121225;28;20087;-85
2021/01/02 21:04:19;;;;;;;37.72;20.45;;;;;;;;;;5118457;27;20016;-85
2021/01/02 21:06:45;;;;;;;36.30;20.58;;;;;;;;;;5136254;27;20028;-86
2021/01/02 21:09:14;;;;;;;40.97;22.80;;;;;;;;;;5118627;27;20031;-86
2021/01/02 21:11:42;;;;;;;35.28;19.90;;;;;;;;;;5118921;27;20038;-84
2021/01/02 21:14:09;;;;;;;37.78;20.88;;;;;;;;;;5135185;28;20010;-86
2021/01/02 21:16:37;;;;;;;40.33;22.42;;;;;;;;;;5128733;28;20019;-87
2021/01/02 21:19:04;;;;;;;40.47;22.95;;;;;;;;;;5114843;28;20055;-86
2021/01/02 21:21:33;;;;;;;40.17;22.05;;;;;;;;;;5114201;28;20330;-85
2021/01/02 21:24:00;;;;;;;36.97;21.57;;;;;;;;;;5115661;28;20023;-87
2021/01/02 21:26:28;;;;;;;43.80;22.30;;;;;;;;;;5104400;28;20023;-85
2021/01/02 21:28:54;;;;;;;38.05;21.33;;;;;;;;;;5122174;28;20024;-87
2021/01/02 21:31:20;;;;;;;36.53;19.73;;;;;;;;;;5104819;28;20103;-85
2021/01/02 21:33:47;;;;;;;40.10;23.73;;;;;;;;;;5102902;28;20024;-85
2021/01/02 21:36:13;;;;;;;36.22;22.52;;;;;;;;;;5101062;28;20434;-86
2021/01/02 21:38:40;;;;;;;41.75;21.63;;;;;;;;;;5101570;28;20027;-86
2021/01/02 21:41:10;;;;;;;40.65;22.92;;;;;;;;;;5101704;28;20069;-85
2021/01/02 21:43:36;;;;;;;32.83;20.75;;;;;;;;;;5119788;28;20072;-87
2021/01/02 21:46:02;;;;;;;38.28;22.40;;;;;;;;;;5102429;28;20028;-87
2021/01/02 21:48:34;;;;;;;35.17;22.38;;;;;;;;;;5118651;28;20114;-87
2021/01/02 21:51:01;;;;;;;37.88;21.20;;;;;;;;;;5102005;28;20024;-87
2021/01/02 21:53:27;;;;;;;38.13;22.63;;;;;;;;;;5101042;28;20035;-87
2021/01/02 21:55:53;;;;;;;39.25;22.05;;;;;;;;;;5119634;28;20072;-87
2021/01/02 21:58:20;;;;;;;45.25;24.98;;;;;;;;;;5102086;28;20031;-87
2021/01/02 22:00:46;;;;;;;40.97;23.33;;;;;;;;;;5099863;28;20097;-86
2021/01/02 22:03:12;;;;;;;39.05;22.27;;;;;;;;;;5100758;28;20012;-86
2021/01/02 22:05:39;;;;;;;43.72;22.85;;;;;;;;;;5100047;28;20024;-86
2021/01/02 22:08:06;;;;;;;41.78;23.58;;;;;;;;;;5100141;28;20023;-87
2021/01/02 22:10:33;;;;;;;41.40;24.60;;;;;;;;;;5117898;28;20019;-86
2021/01/02 22:13:00;;;;;;;41.40;22.33;;;;;;;;;;5099849;28;20066;-86
2021/01/02 22:15:26;;;;;;;41.38;22.75;;;;;;;;;;5101409;28;20084;-85
2021/01/02 22:17:52;;;;;;;43.63;22.67;;;;;;;;;;5101686;28;20024;-86
2021/01/02 22:20:22;;;;;;;40.22;21.77;;;;;;;;;;5101124;28;20024;-85
2021/01/02 22:22:48;;;;;;;39.20;22.40;;;;;;;;;;5098253;28;20028;-86
2021/01/02 22:25:15;;;;;;;41.42;22.95;;;;;;;;;;5087739;28;20039;-85
2021/01/02 22:27:42;;;;;;;40.05;22.83;;;;;;;;;;5092936;28;20065;-85
2021/01/02 22:30:09;;;;;;;36.30;20.38;;;;;;;;;;5104754;28;20026;-85
2021/01/02 22:32:36;;;;;;;34.30;19.92;;;;;;;;;;5094952;28;20118;-85
2021/01/02 22:35:03;;;;;;;38.47;22.55;;;;;;;;;;5114215;28;20027;-84
2021/01/02 22:37:29;;;;;;;41.25;22.60;;;;;;;;;;5094603;28;20032;-86
2021/01/02 22:39:55;;;;;;;40.47;22.13;;;;;;;;;;5094161;28;20118;-85
2021/01/02 22:42:21;;;;;;;32.75;20.65;;;;;;;;;;5109368;28;20043;-84
2021/01/02 22:44:47;;;;;;;34.03;21.35;;;;;;;;;;5113637;28;20020;-85
2021/01/02 22:47:14;;;;;;;37.05;21.27;;;;;;;;;;5114720;28;20027;-85
2021/01/02 22:49:40;;;;;;;34.00;19.40;;;;;;;;;;5097343;28;20157;-85
2021/01/02 22:52:06;;;;;;;33.05;21.48;;;;;;;;;;5087486;28;20032;-84
2021/01/02 22:54:32;;;;;;;38.35;22.27;;;;;;;;;;5094709;28;20023;-85
2021/01/02 22:57:03;;;;;;;36.08;21.33;;;;;;;;;;5096799;28;20035;-85
2021/01/02 22:59:32;;;;;;;40.40;21.90;;;;;;;;;;5093168;28;20036;-84
2021/01/02 23:02:00;;;;;;;31.90;20.65;;;;;;;;;;5097828;28;20127;-86
2021/01/02 23:04:26;;;;;;;34.95;21.52;;;;;;;;;;5096983;28;20020;-85
2021/01/02 23:06:52;;;;;;;33.58;22.45;;;;;;;;;;5095535;28;20020;-85
2021/01/02 23:09:19;;;;;;;34.35;21.35;;;;;;;;;;5090414;28;20032;-85
2021/01/02 23:11:45;;;;;;;39.33;21.83;;;;;;;;;;5092249;28;20027;-85
2021/01/02 23:14:15;;;;;;;33.78;20.25;;;;;;;;;;5101083;28;20024;-85
2021/01/02 23:16:42;;;;;;;32.70;20.25;;;;;;;;;;5094238;28;20972;-85
2021/01/02 23:19:10;;;;;;;32.03;19.80;;;;;;;;;;5097224;28;20419;-86
2021/01/02 23:21:36;;;;;;;37.47;21.63;;;;;;;;;;5095384;28;20048;-86
2021/01/02 23:24:05;;;;;;;35.53;22.83;;;;;;;;;;5096539;28;20024;-85
2021/01/02 23:26:32;;;;;;;37.78;21.40;;;;;;;;;;5097035;28;20027;-85
2021/01/02 23:28:58;;;;;;;34.53;20.08;;;;;;;;;;5096196;28;20063;-85
2021/01/02 23:31:24;;;;;;;35.63;22.27;;;;;;;;;;5097138;28;20097;-85
2021/01/02 23:33:50;;;;;;;37.40;22.15;;;;;;;;;;5100298;28;20020;-85
2021/01/02 23:36:21;;;;;;;34.63;19.90;;;;;;;;;;5096516;28;20039;-86
2021/01/02 23:38:47;;;;;;;36.40;22.02;;;;;;;;;;5090130;28;20028;-87
2021/01/02 23:41:18;;;;;;;35.95;21.52;;;;;;;;;;5116817;28;20449;-86
2021/01/02 23:43:44;;;;;;;34.63;21.95;;;;;;;;;;5094044;28;20035;-85
2021/01/02 23:46:14;;;;;;;38.63;20.08;;;;;;;;;;5096160;28;20035;-85
2021/01/02 23:48:40;;;;;;;34.92;20.48;;;;;;;;;;5116084;28;20020;-87
2021/01/02 23:51:06;;;;;;;37.10;22.33;;;;;;;;;;5099242;28;20061;-88
2021/01/02 23:53:32;;;;;;;39.15;24.13;;;;;;;;;;5093100;28;20019;-87
2021/01/02 23:56:06;;;;;;;37.47;22.95;;;;;;;;;;5092648;28;20051;-87
2021/01/02 23:58:32;;;;;;;35.13;21.63;;;;;;;;;;5093941;28;20052;-88
